Time;durP1;ratioP1;P1;durP2;ratioP2;P2;SDS_P1;SDS_P2;PMS_P1;PMS_P2;Temp;Humidity;BMP_temperature;BMP_pressure;BME280_temperature;BME280_humidity;BME280_pressure;Samples;Min_cycle;Max_cycle;Signal;HPM_P1;HPM_P2
2023/08/14 00:02:03;;;;;;;7.30;4.70;;;14.60;99.90;;;;;;4967261;28;20034;-87
2023/08/14 00:04:28;;;;;;;5.38;4.32;;;14.60;99.90;;;;;;4945614;28;20034;-87
2023/08/14 00:06:54;;;;;;;6.47;4.93;;;14.50;99.90;;;;;;4959419;28;20081;-86
2023/08/14 00:09:20;;;;;;;7.03;5.50;;;14.50;99.90;;;;;;4959567;28;20547;-87
2023/08/14 00:11:46;;;;;;;7.82;5.93;;;14.50;99.90;;;;;;4980062;28;20124;-87
2023/08/14 00:14:12;;;;;;;6.13;5.35;;;14.50;99.90;;;;;;4976981;28;20671;-87
2023/08/14 00:16:41;;;;;;;7.97;5.00;;;14.50;99.90;;;;;;4970843;28;20042;-86
2023/08/14 00:19:07;;;;;;;7.07;4.78;;;14.50;99.90;;;;;;4962334;28;20039;-87
2023/08/14 00:21:32;;;;;;;18.98;6.22;;;14.50;99.90;;;;;;4962069;28;20045;-86
2023/08/14 00:23:58;;;;;;;8.32;5.05;;;14.50;99.90;;;;;;4943177;28;20350;-85
2023/08/14 00:26:24;;;;;;;8.13;4.60;;;14.40;99.90;;;;;;4959398;28;20057;-87
2023/08/14 00:28:49;;;;;;;6.05;4.50;;;14.40;99.90;;;;;;4959680;28;20462;-88
2023/08/14 00:31:16;;;;;;;7.38;5.30;;;14.40;99.90;;;;;;4959409;28;20038;-86
2023/08/14 00:33:42;;;;;;;6.28;4.97;;;14.40;99.90;;;;;;4975390;28;20042;-85
2023/08/14 00:36:08;;;;;;;8.98;4.97;;;14.40;99.90;;;;;;4945534;28;20244;-86
2023/08/14 00:38:33;;;;;;;6.13;5.18;;;14.40;99.90;;;;;;4972823;28;20870;-87
2023/08/14 00:40:59;;;;;;;7.38;5.15;;;14.30;99.90;;;;;;4948666;28;20409;-85
2023/08/14 00:43:25;;;;;;;5.88;4.75;;;14.30;99.90;;;;;;4947630;28;20073;-86
2023/08/14 00:45:55;;;;;;;5.60;4.80;;;14.30;99.90;;;;;;4964851;28;20101;-88
2023/08/14 00:48:22;;;;;;;7.45;4.60;;;14.30;99.90;;;;;;4966680;28;20574;-87
2023/08/14 00:50:47;;;;;;;5.20;3.92;;;14.20;99.90;;;;;;4947620;28;20116;-88
2023/08/14 00:53:14;;;;;;;4.40;3.97;;;14.10;99.90;;;;;;4955850;28;20509;-86
2023/08/14 00:55:40;;;;;;;4.80;4.13;;;14.10;99.90;;;;;;4956346;28;20101;-89
2023/08/14 00:58:06;;;;;;;8.15;5.15;;;14.10;99.90;;;;;;4954449;28;20523;-89
2023/08/14 01:00:34;;;;;;;6.45;5.35;;;14.10;99.90;;;;;;4948481;28;20030;-88
2023/08/14 01:03:01;;;;;;;6.03;5.03;;;14.20;99.90;;;;;;4978225;28;20121;-87
2023/08/14 01:05:26;;;;;;;8.90;5.90;;;14.20;99.90;;;;;;4956689;28;20046;-85
2023/08/14 01:07:52;;;;;;;7.40;5.20;;;14.20;99.90;;;;;;4973916;28;20088;-87
2023/08/14 01:10:18;;;;;;;7.30;5.85;;;14.20;99.90;;;;;;4960727;28;20043;-88
2023/08/14 01:12:56;;;;;;;7.60;5.68;;;14.20;99.90;;;;;;4943678;28;20038;-87
2023/08/14 01:15:36;;;;;;;7.78;5.97;;;14.20;99.90;;;;;;4959807;28;20042;-87
2023/08/14 01:18:03;;;;;;;7.95;6.55;;;14.20;99.90;;;;;;4945476;28;20034;-87
2023/08/14 01:20:35;;;;;;;9.35;5.65;;;14.30;99.90;;;;;;4952258;28;20031;-87
2023/08/14 01:23:30;;;;;;;8.73;6.35;;;14.20;99.90;;;;;;4960195;28;20092;-87
2023/08/14 01:25:56;;;;;;;9.95;6.93;;;14.30;99.90;;;;;;4941927;28;20197;-89
2023/08/14 01:28:25;;;;;;;6.53;5.80;;;14.30;99.90;;;;;;4945566;28;20557;-88
2023/08/14 01:30:51;;;;;;;9.70;6.30;;;14.30;99.90;;;;;;4946154;28;20053;-88
2023/08/14 01:33:16;;;;;;;8.90;6.13;;;14.20;99.90;;;;;;4959285;28;20044;-87
2023/08/14 01:35:51;;;;;;;8.40;6.35;;;14.30;99.90;;;;;;4943433;28;20238;-88
2023/08/14 01:38:31;;;;;;;8.48;6.20;;;14.20;99.90;;;;;;4958292;28;20042;-87
2023/08/14 01:41:03;;;;;;;9.20;5.75;;;14.20;99.90;;;;;;4982248;28;20042;-87
2023/08/14 01:43:37;;;;;;;9.80;6.28;;;14.20;99.90;;;;;;4967108;28;20097;-89
2023/08/14 01:46:04;;;;;;;10.95;6.97;;;14.20;99.90;;;;;;4951299;28;20074;-87
2023/08/14 01:48:31;;;;;;;8.13;6.45;;;14.20;99.90;;;;;;4948669;28;20086;-87
2023/08/14 01:50:58;;;;;;;10.95;7.18;;;14.20;99.90;;;;;;4964274;28;20034;-88
2023/08/14 01:53:24;;;;;;;11.90;6.70;;;14.10;99.90;;;;;;4965007;28;20749;-89
2023/08/14 01:55:50;;;;;;;9.60;7.07;;;14.10;99.90;;;;;;4983662;28;20046;-86
2023/08/14 01:58:15;;;;;;;11.18;7.20;;;14.10;99.90;;;;;;4976433;28;20042;-87
2023/08/14 02:00:41;;;;;;;9.35;7.28;;;14.10;99.90;;;;;;4966372;28;20042;-87
2023/08/14 02:03:07;;;;;;;9.23;7.00;;;14.20;99.90;;;;;;4949949;28;20914;-87
2023/08/14 02:05:32;;;;;;;8.23;6.80;;;14.20;99.90;;;;;;4964821;28;20034;-86
2023/08/14 02:07:58;;;;;;;10.73;7.47;;;14.20;99.90;;;;;;4946730;28;20138;-87
2023/08/14 02:10:24;;;;;;;11.98;7.53;;;14.20;99.90;;;;;;4981179;28;20039;-87
2023/08/14 02:12:49;;;;;;;11.38;7.95;;;14.20;99.90;;;;;;4966749;28;20462;-87
2023/08/14 02:15:16;;;;;;;10.07;7.32;;;14.20;99.90;;;;;;4964886;28;20110;-88
2023/08/14 02:17:44;;;;;;;12.32;7.88;;;14.10;99.90;;;;;;4980761;28;20042;-88
2023/08/14 02:20:10;;;;;;;13.35;7.82;;;14.20;99.90;;;;;;4960116;28;20350;-87
2023/08/14 02:22:36;;;;;;;10.75;8.40;;;14.20;99.90;;;;;;4963528;28;20046;-87
2023/08/14 02:25:01;;;;;;;11.65;8.02;;;14.20;99.90;;;;;;4977355;28;20041;-87
2023/08/14 02:27:27;;;;;;;12.85;8.90;;;14.20;99.90;;;;;;4962953;28;20038;-89
2023/08/14 02:29:53;;;;;;;11.73;8.48;;;14.30;99.90;;;;;;4948780;28;20126;-89
2023/08/14 02:32:18;;;;;;;11.00;8.07;;;14.20;99.90;;;;;;4965649;28;20042;-88
2023/08/14 02:34:49;;;;;;;12.18;8.00;;;14.10;99.90;;;;;;4960452;28;20505;-88
2023/08/14 02:37:16;;;;;;;10.93;8.18;;;14.20;99.90;;;;;;4947489;28;20113;-87
2023/08/14 02:39:43;;;;;;;12.02;8.10;;;14.10;99.90;;;;;;4964414;28;20452;-88
2023/08/14 02:42:09;;;;;;;12.18;8.75;;;14.10;99.90;;;;;;4959598;28;20061;-88
2023/08/14 02:44:35;;;;;;;9.07;7.90;;;14.20;99.90;;;;;;4979684;28;20440;-88
2023/08/14 02:47:03;;;;;;;12.77;8.90;;;14.10;99.90;;;;;;4978403;28;20130;-87
2023/08/14 02:49:29;;;;;;;9.90;8.10;;;14.00;99.90;;;;;;4962199;28;20312;-87
2023/08/14 02:51:55;;;;;;;10.43;8.32;;;14.00;99.90;;;;;;4953444;28;20548;-88
2023/08/14 02:54:21;;;;;;;10.50;7.78;;;14.00;99.90;;;;;;4979192;28;20053;-88
2023/08/14 02:56:47;;;;;;;12.75;9.07;;;14.00;99.90;;;;;;4964650;28;20038;-88
2023/08/14 02:59:13;;;;;;;13.93;9.27;;;14.00;99.90;;;;;;4948137;28;20038;-87
2023/08/14 03:01:39;;;;;;;12.15;8.38;;;14.00;99.90;;;;;;4961997;28;20144;-87
2023/08/14 03:04:04;;;;;;;11.98;8.60;;;14.00;99.90;;;;;;4946619;28;20133;-88
2023/08/14 03:06:33;;;;;;;13.57;9.20;;;14.00;99.90;;;;;;4959101;28;20494;-87
2023/08/14 03:08:59;;;;;;;11.05;8.93;;;14.00;99.90;;;;;;4978174;28;20070;-88
2023/08/14 03:11:25;;;;;;;11.30;8.52;;;14.00;99.90;;;;;;4979112;28;20049;-90
2023/08/14 03:13:51;;;;;;;10.60;8.82;;;14.00;99.90;;;;;;4961798;28;20043;-87
2023/08/14 03:16:17;;;;;;;12.30;8.60;;;14.00;99.90;;;;;;4949853;28;20053;-87
2023/08/14 03:18:43;;;;;;;10.40;8.00;;;14.00;99.90;;;;;;4979934;28;20038;-87
2023/08/14 03:21:09;;;;;;;11.90;7.85;;;13.90;99.90;;;;;;4976435;28;20034;-87
2023/08/14 03:23:36;;;;;;;12.85;9.32;;;14.00;99.90;;;;;;4964560;28;20072;-87
2023/08/14 03:26:02;;;;;;;13.70;8.80;;;13.90;99.90;;;;;;4946958;28;20037;-87
2023/08/14 03:28:31;;;;;;;12.13;8.73;;;13.90;99.90;;;;;;4960207;28;20051;-88
2023/08/14 03:30:57;;;;;;;12.60;8.65;;;13.90;99.90;;;;;;4949605;28;20038;-87
2023/08/14 03:33:23;;;;;;;12.52;8.40;;;13.80;99.90;;;;;;4962100;28;20153;-87
2023/08/14 03:35:53;;;;;;;10.43;8.02;;;13.80;99.90;;;;;;4980303;28;20307;-88
2023/08/14 03:38:18;;;;;;;10.40;8.23;;;13.80;99.90;;;;;;4958637;28;20070;-88
2023/08/14 03:40:44;;;;;;;13.52;8.80;;;13.80;99.90;;;;;;4947244;28;20058;-88
2023/08/14 03:43:10;;;;;;;12.85;8.93;;;13.80;99.90;;;;;;4980092;28;20046;-89
2023/08/14 03:45:36;;;;;;;13.40;9.40;;;13.80;99.90;;;;;;4950978;28;20037;-88
2023/08/14 03:48:02;;;;;;;14.98;9.18;;;13.80;99.90;;;;;;4963437;28;20038;-89
2023/08/14 03:50:27;;;;;;;11.10;9.20;;;13.80;99.90;;;;;;4975808;28;20034;-88
2023/08/14 03:52:53;;;;;;;13.77;9.80;;;13.80;99.90;;;;;;4962898;28;20100;-88
2023/08/14 03:55:19;;;;;;;13.60;9.27;;;13.80;99.90;;;;;;4964287;28;20114;-88
2023/08/14 03:57:44;;;;;;;11.20;9.38;;;13.80;99.90;;;;;;4945393;28;20065;-87
2023/08/14 04:00:10;;;;;;;17.75;9.73;;;13.80;99.90;;;;;;4962115;28;20046;-87
2023/08/14 04:02:45;;;;;;;13.40;9.48;;;13.80;99.90;;;;;;4962212;28;20138;-87
2023/08/14 04:05:11;;;;;;;15.68;9.55;;;13.70;99.90;;;;;;4960850;28;20121;-87
2023/08/14 04:07:36;;;;;;;12.38;9.80;;;13.80;99.90;;;;;;4963900;28;20046;-88
2023/08/14 04:10:03;;;;;;;12.85;9.43;;;13.80;99.90;;;;;;4963951;28;20476;-88
2023/08/14 04:12:28;;;;;;;15.35;10.27;;;13.80;99.90;;;;;;4947068;28;20038;-89
2023/08/14 04:14:54;;;;;;;14.73;9.93;;;13.80;99.90;;;;;;4979487;28;20182;-87
2023/08/14 04:17:19;;;;;;;15.23;9.80;;;13.80;99.90;;;;;;4963820;28;20042;-87
2023/08/14 04:19:45;;;;;;;14.63;10.15;;;13.90;99.90;;;;;;4975886;28;20104;-88
2023/08/14 04:22:11;;;;;;;15.48;9.75;;;13.90;99.90;;;;;;4979036;28;20049;-88
2023/08/14 04:24:36;;;;;;;16.67;9.95;;;13.90;99.90;;;;;;4953759;28;20045;-87
2023/08/14 04:27:05;;;;;;;18.90;10.80;;;13.90;99.90;;;;;;4956313;28;20050;-87
2023/08/14 04:29:30;;;;;;;14.90;10.30;;;14.00;99.90;;;;;;4962364;28;20038;-87
2023/08/14 04:31:56;;;;;;;11.57;9.45;;;14.00;99.90;;;;;;4977266;28;20172;-87
2023/08/14 04:34:22;;;;;;;15.80;10.55;;;14.00;99.90;;;;;;4959319;28;20271;-87
2023/08/14 04:36:48;;;;;;;14.88;9.70;;;14.10;99.90;;;;;;4977514;28;20088;-87
2023/08/14 04:39:14;;;;;;;13.52;9.27;;;14.10;99.90;;;;;;4959321;28;20077;-90
2023/08/14 04:41:40;;;;;;;13.10;9.80;;;14.10;99.90;;;;;;4956966;28;20039;-86
2023/08/14 04:44:08;;;;;;;14.65;9.55;;;14.20;99.90;;;;;;4961454;28;20125;-87
2023/08/14 04:46:36;;;;;;;14.52;9.55;;;14.20;99.90;;;;;;4963772;28;20118;-88
2023/08/14 04:49:02;;;;;;;14.60;9.23;;;14.30;99.90;;;;;;4956324;28;20053;-87
2023/08/14 04:51:30;;;;;;;13.80;10.00;;;14.30;99.90;;;;;;4959304;28;20154;-87
2023/08/14 04:53:59;;;;;;;17.17;10.38;;;14.40;99.90;;;;;;4974628;28;20053;-88
2023/08/14 04:56:25;;;;;;;15.02;9.57;;;14.40;99.90;;;;;;4961552;28;20493;-88
2023/08/14 04:58:52;;;;;;;13.32;9.48;;;14.50;99.90;;;;;;4962005;28;20085;-88
2023/08/14 05:01:18;;;;;;;15.65;10.60;;;14.60;99.90;;;;;;4956024;28;20140;-88
2023/08/14 05:03:44;;;;;;;15.48;10.18;;;14.80;99.90;;;;;;4960827;28;20101;-88
2023/08/14 05:06:10;;;;;;;13.05;9.80;;;14.80;99.90;;;;;;4959443;28;20344;-88
2023/08/14 05:08:35;;;;;;;14.27;10.57;;;14.90;99.90;;;;;;4949895;28;20141;-88
2023/08/14 05:11:01;;;;;;;17.25;10.57;;;15.00;99.90;;;;;;4962879;28;20188;-88
2023/08/14 05:13:27;;;;;;;16.35;10.20;;;15.00;99.90;;;;;;4951360;28;20042;-89
2023/08/14 05:15:52;;;;;;;13.45;10.00;;;15.10;99.90;;;;;;4962686;28;20488;-89
2023/08/14 05:18:18;;;;;;;12.18;9.55;;;15.10;99.90;;;;;;4964634;28;20578;-89
2023/08/14 05:20:49;;;;;;;13.70;10.20;;;15.20;99.90;;;;;;4961084;28;20038;-88
2023/08/14 05:23:15;;;;;;;15.27;10.13;;;15.30;99.90;;;;;;4958307;28;20074;-89
2023/08/14 05:25:42;;;;;;;15.93;10.13;;;15.30;99.90;;;;;;4960139;28;20502;-87
2023/08/14 05:28:08;;;;;;;12.85;9.38;;;15.30;99.90;;;;;;4981297;28;20042;-88
2023/08/14 05:30:35;;;;;;;14.00;9.63;;;15.40;99.90;;;;;;4961323;28;20517;-88
2023/08/14 05:33:04;;;;;;;13.18;9.90;;;15.50;99.90;;;;;;4972717;28;20093;-87
2023/08/14 05:35:30;;;;;;;16.08;9.50;;;15.60;99.90;;;;;;4957890;28;20049;-88
2023/08/14 05:37:57;;;;;;;19.52;9.70;;;15.70;99.90;;;;;;4973719;28;20435;-89
2023/08/14 05:40:29;;;;;;;12.75;9.63;;;15.80;99.90;;;;;;4958915;28;20042;-87
2023/08/14 05:43:03;;;;;;;12.77;8.98;;;15.90;99.90;;;;;;4961292;28;20049;-88
2023/08/14 05:45:30;;;;;;;15.20;9.90;;;16.00;99.90;;;;;;4963619;28;20117;-87
2023/08/14 05:47:55;;;;;;;13.70;9.50;;;16.10;99.90;;;;;;4968898;28;20118;-89
2023/08/14 05:50:21;;;;;;;15.18;10.25;;;16.10;99.90;;;;;;4959038;28;20140;-87
2023/08/14 05:52:47;;;;;;;14.38;9.40;;;16.10;99.90;;;;;;4943182;28;20100;-87
2023/08/14 05:55:13;;;;;;;15.45;9.18;;;16.30;99.90;;;;;;4958309;28;20041;-88
2023/08/14 05:57:39;;;;;;;12.43;9.25;;;16.20;99.90;;;;;;4943411;28;20049;-87
2023/08/14 06:00:05;;;;;;;13.63;8.82;;;16.30;99.90;;;;;;4960757;28;20046;-86
2023/08/14 06:02:31;;;;;;;13.13;8.32;;;16.30;99.90;;;;;;4962432;28;20050;-87
2023/08/14 06:04:56;;;;;;;13.45;8.82;;;16.40;99.90;;;;;;4947483;28;20038;-87
2023/08/14 06:07:22;;;;;;;12.98;8.45;;;16.50;99.90;;;;;;4961085;28;21197;-88
2023/08/14 06:09:50;;;;;;;14.98;9.38;;;16.60;99.90;;;;;;4947407;28;20053;-87
2023/08/14 06:12:16;;;;;;;15.27;9.25;;;16.70;99.90;;;;;;4960743;28;20074;-88
2023/08/14 06:14:41;;;;;;;12.82;8.85;;;16.60;99.90;;;;;;4961178;28;20103;-89
2023/08/14 06:17:07;;;;;;;13.60;9.63;;;16.70;99.90;;;;;;4976623;28;20042;-87
2023/08/14 06:19:33;;;;;;;13.02;8.40;;;16.90;99.90;;;;;;4958742;28;20038;-87
2023/08/14 06:22:02;;;;;;;11.18;8.55;;;17.00;99.90;;;;;;4962169;28;20521;-88
2023/08/14 06:24:29;;;;;;;12.15;9.00;;;17.00;99.90;;;;;;4964056;28;20056;-88
2023/08/14 06:26:57;;;;;;;11.60;8.50;;;17.10;99.90;;;;;;4983678;28;20077;-87
2023/08/14 06:29:23;;;;;;;11.25;8.65;;;17.10;99.90;;;;;;4948014;28;20061;-87
2023/08/14 06:31:49;;;;;;;14.55;9.45;;;17.20;99.90;;;;;;4948969;28;20505;-88
2023/08/14 06:34:14;;;;;;;10.95;8.63;;;17.20;99.90;;;;;;4946106;28;20056;-88
2023/08/14 06:36:40;;;;;;;11.75;8.60;;;17.30;99.90;;;;;;4966678;28;20050;-87
2023/08/14 06:39:06;;;;;;;10.57;8.05;;;17.20;99.90;;;;;;4944772;28;21058;-88
2023/08/14 06:41:31;;;;;;;11.65;8.25;;;17.20;99.90;;;;;;4967677;28;20103;-87
2023/08/14 06:43:57;;;;;;;11.68;8.13;;;17.30;99.90;;;;;;4963328;28;20049;-87
2023/08/14 06:46:23;;;;;;;10.20;7.80;;;17.40;99.90;;;;;;4982042;28;20049;-87
2023/08/14 06:48:49;;;;;;;14.50;8.18;;;17.40;99.90;;;;;;4961765;28;20046;-86
2023/08/14 06:51:14;;;;;;;11.63;8.13;;;17.40;99.90;;;;;;4946451;28;20126;-87
2023/08/14 06:53:40;;;;;;;10.85;8.27;;;17.50;99.90;;;;;;4947730;28;20037;-86
2023/08/14 06:56:09;;;;;;;11.00;8.00;;;17.60;99.90;;;;;;4979179;28;20516;-88
2023/08/14 06:58:35;;;;;;;8.98;7.38;;;17.60;99.90;;;;;;4963190;28;20555;-83
2023/08/14 07:01:00;;;;;;;9.30;6.82;;;17.60;99.90;;;;;;4979833;28;20038;-83
2023/08/14 07:03:26;;;;;;;9.88;7.22;;;17.70;99.90;;;;;;4961324;28;20045;-86
2023/08/14 07:05:51;;;;;;;11.13;7.95;;;17.90;99.90;;;;;;4959532;28;20034;-86
2023/08/14 07:08:17;;;;;;;10.15;7.22;;;18.00;99.90;;;;;;4977811;28;20128;-86
2023/08/14 07:10:43;;;;;;;9.75;7.25;;;17.90;99.90;;;;;;4962428;28;20416;-86
2023/08/14 07:13:12;;;;;;;8.77;7.40;;;18.10;99.90;;;;;;4964350;28;20049;-86
2023/08/14 07:15:38;;;;;;;15.65;7.10;;;18.10;99.90;;;;;;4949486;28;20042;-86
2023/08/14 07:18:04;;;;;;;11.20;7.25;;;18.40;99.90;;;;;;4960330;28;20559;-87
2023/08/14 07:20:29;;;;;;;9.57;6.70;;;18.40;99.90;;;;;;4977700;28;20049;-86
2023/08/14 07:22:55;;;;;;;9.98;7.40;;;18.60;99.90;;;;;;4961133;28;20034;-86
2023/08/14 07:25:21;;;;;;;9.10;7.10;;;18.80;99.90;;;;;;4959172;28;20536;-86
2023/08/14 07:27:47;;;;;;;12.63;6.93;;;18.90;99.90;;;;;;4963249;28;20109;-86
2023/08/14 07:30:14;;;;;;;10.90;6.70;;;19.10;99.90;;;;;;4946146;28;20481;-86
2023/08/14 07:32:42;;;;;;;8.57;6.53;;;19.30;99.90;;;;;;4967308;28;20828;-85
2023/08/14 07:35:08;;;;;;;8.35;6.03;;;19.40;99.90;;;;;;4960351;28;20115;-85
2023/08/14 07:37:33;;;;;;;8.60;6.60;;;19.70;99.90;;;;;;4962881;28;20085;-85
2023/08/14 07:39:59;;;;;;;8.77;5.80;;;19.80;99.90;;;;;;4977517;28;20049;-85
2023/08/14 07:42:25;;;;;;;8.57;6.22;;;20.00;99.90;;;;;;4964143;28;20058;-87
2023/08/14 07:44:51;;;;;;;8.77;5.50;;;19.90;99.90;;;;;;4962545;28;20042;-86
2023/08/14 07:47:17;;;;;;;9.73;6.00;;;19.90;99.90;;;;;;4960874;28;20521;-86
2023/08/14 07:49:42;;;;;;;11.68;5.80;;;19.80;99.90;;;;;;4973643;28;20308;-86
2023/08/14 07:52:10;;;;;;;7.20;5.35;;;20.00;99.90;;;;;;4962632;28;20044;-85
2023/08/14 07:54:35;;;;;;;7.45;5.10;;;20.00;99.90;;;;;;4974132;28;20051;-85
2023/08/14 07:57:01;;;;;;;6.00;4.60;;;20.00;99.90;;;;;;4961998;28;20042;-86
2023/08/14 07:59:27;;;;;;;10.43;5.28;;;20.10;99.90;;;;;;4946206;28;20478;-87
2023/08/14 08:01:52;;;;;;;5.90;4.53;;;20.20;99.90;;;;;;4947100;28;20105;-86
2023/08/14 08:04:18;;;;;;;9.38;4.90;;;20.20;99.90;;;;;;4975254;28;20074;-86
2023/08/14 08:06:43;;;;;;;6.22;4.25;;;20.30;99.90;;;;;;4975738;28;20132;-87
2023/08/14 08:09:09;;;;;;;7.20;4.03;;;20.50;99.90;;;;;;4958846;28;20124;-87
2023/08/14 08:11:35;;;;;;;9.13;4.50;;;20.60;99.90;;;;;;4975460;28;20140;-85
2023/08/14 08:14:05;;;;;;;7.88;4.32;;;20.60;99.90;;;;;;4945807;28;20042;-86
2023/08/14 08:16:34;;;;;;;8.73;4.28;;;20.60;99.90;;;;;;4962607;28;20541;-86
2023/08/14 08:19:04;;;;;;;8.82;4.13;;;20.70;99.90;;;;;;4955924;28;20586;-86
2023/08/14 08:21:30;;;;;;;6.00;3.80;;;20.80;99.90;;;;;;4964868;28;20067;-85
2023/08/14 08:23:56;;;;;;;5.03;3.80;;;20.90;99.90;;;;;;4977046;28;20581;-85
2023/08/14 08:26:22;;;;;;;4.97;3.47;;;21.00;99.90;;;;;;4960054;28;20042;-85
2023/08/14 08:28:48;;;;;;;7.10;3.50;;;21.00;99.90;;;;;;4949057;28;20189;-85
2023/08/14 08:31:14;;;;;;;6.10;3.90;;;21.10;99.90;;;;;;4960697;28;20038;-86
2023/08/14 08:33:39;;;;;;;6.60;3.75;;;21.40;99.90;;;;;;4977171;28;20042;-86
2023/08/14 08:36:05;;;;;;;8.15;3.63;;;21.60;99.90;;;;;;4964851;28;20069;-86
2023/08/14 08:38:31;;;;;;;5.00;3.47;;;21.70;99.90;;;;;;4958421;28;20428;-85
2023/08/14 08:41:02;;;;;;;4.95;3.38;;;21.90;99.90;;;;;;4944350;28;20037;-87
2023/08/14 08:43:29;;;;;;;4.63;3.08;;;21.90;99.90;;;;;;4959208;28;20443;-85
2023/08/14 08:45:58;;;;;;;5.38;3.40;;;22.00;99.90;;;;;;4978606;28;20053;-85
2023/08/14 08:48:24;;;;;;;6.10;3.30;;;22.50;99.90;;;;;;4946522;28;20042;-86
2023/08/14 08:50:51;;;;;;;6.43;2.97;;;22.70;99.90;;;;;;4978296;28;20088;-85
2023/08/14 08:53:20;;;;;;;3.95;2.88;;;22.90;99.90;;;;;;4944659;28;20661;-86
2023/08/14 08:55:47;;;;;;;5.30;3.00;;;22.50;99.90;;;;;;4975530;28;20419;-86
2023/08/14 08:58:18;;;;;;;4.18;2.60;;;22.40;99.90;;;;;;4940015;28;20145;-85
2023/08/14 09:00:44;;;;;;;10.63;3.00;;;22.50;99.90;;;;;;4961684;28;20429;-85
2023/08/14 09:03:10;;;;;;;5.80;2.80;;;22.40;99.90;;;;;;4964344;28;20034;-86
2023/08/14 09:05:37;;;;;;;5.57;2.55;;;22.30;99.90;;;;;;4977289;28;20059;-86
2023/08/14 09:08:03;;;;;;;4.35;2.47;;;22.10;99.90;;;;;;4957105;28;20086;-85
2023/08/14 09:10:29;;;;;;;4.47;2.00;;;22.00;99.90;;;;;;4962357;28;20050;-86
2023/08/14 09:12:56;;;;;;;3.88;2.10;;;22.20;99.90;;;;;;4942266;28;20038;-87
2023/08/14 09:15:23;;;;;;;5.30;2.70;;;22.50;99.90;;;;;;4958725;28;20046;-85
2023/08/14 09:17:51;;;;;;;4.82;2.42;;;22.90;99.90;;;;;;4958318;28;20050;-86
2023/08/14 09:20:17;;;;;;;4.03;2.28;;;22.80;99.90;;;;;;4956855;28;20046;-87
2023/08/14 09:22:43;;;;;;;4.93;2.42;;;23.30;99.90;;;;;;4944683;28;20038;-87
2023/08/14 09:25:09;;;;;;;5.50;2.22;;;23.10;99.90;;;;;;4961187;28;20065;-85
2023/08/14 09:27:38;;;;;;;3.80;2.25;;;23.10;99.90;;;;;;4974576;28;20038;-85
2023/08/14 09:30:12;;;;;;;10.07;2.50;;;22.90;99.90;;;;;;4977824;28;20070;-85
2023/08/14 09:32:39;;;;;;;2.92;1.90;;;23.00;99.90;;;;;;4945864;28;20085;-85
2023/08/14 09:35:05;;;;;;;4.60;1.80;;;23.30;99.90;;;;;;4956013;28;20045;-85
2023/08/14 09:37:30;;;;;;;6.93;2.22;;;23.00;99.90;;;;;;4963750;28;20077;-87
2023/08/14 09:40:17;;;;;;;3.47;1.70;;;23.30;99.90;;;;;;4958992;28;20125;-86
2023/08/14 09:42:48;;;;;;;4.22;1.88;;;23.30;99.90;;;;;;4958427;28;20434;-85
2023/08/14 09:45:15;;;;;;;2.78;1.70;;;23.30;99.90;;;;;;4978267;28;20469;-87
2023/08/14 09:47:46;;;;;;;3.67;1.80;;;23.30;99.90;;;;;;4946346;28;20523;-85
2023/08/14 09:50:15;;;;;;;2.83;1.40;;;23.50;99.90;;;;;;4965595;28;20584;-84
2023/08/14 09:52:42;;;;;;;5.38;1.67;;;23.60;99.90;;;;;;4961062;28;20088;-86
2023/08/14 09:55:08;;;;;;;2.58;1.65;;;23.70;99.90;;;;;;4943778;28;20038;-85
2023/08/14 09:57:34;;;;;;;5.28;1.65;;;24.00;99.90;;;;;;4977253;28;20124;-85
2023/08/14 10:00:00;;;;;;;3.00;1.33;;;24.10;99.90;;;;;;4974976;28;20042;-87
2023/08/14 10:02:26;;;;;;;7.43;1.30;;;24.40;99.90;;;;;;4965860;28;20034;-85
2023/08/14 10:04:53;;;;;;;2.25;1.42;;;24.70;99.90;;;;;;4977233;28;20613;-86
2023/08/14 10:07:23;;;;;;;2.17;1.33;;;24.40;99.90;;;;;;4979088;28;20078;-85
2023/08/14 10:09:55;;;;;;;2.40;1.58;;;24.40;99.90;;;;;;4946830;28;20042;-86
2023/08/14 10:12:29;;;;;;;3.92;1.55;;;24.30;99.90;;;;;;4959830;28;20115;-87
2023/08/14 10:15:14;;;;;;;4.10;1.48;;;24.40;99.90;;;;;;4948380;28;20035;-86
2023/08/14 10:17:56;;;;;;;2.75;1.55;;;24.60;99.90;;;;;;4964660;28;20085;-86
2023/08/14 10:20:23;;;;;;;2.78;1.65;;;24.90;99.90;;;;;;4980554;28;20356;-87
2023/08/14 10:22:52;;;;;;;3.30;1.75;;;25.10;99.90;;;;;;4977642;28;20038;-89
2023/08/14 10:25:20;;;;;;;3.28;1.77;;;25.30;99.90;;;;;;4964420;28;20053;-87
2023/08/14 10:27:46;;;;;;;2.92;1.70;;;25.20;99.90;;;;;;4965330;28;20053;-87
2023/08/14 10:30:13;;;;;;;3.83;1.80;;;25.20;99.90;;;;;;4961939;28;20058;-87
2023/08/14 10:32:40;;;;;;;2.78;1.45;;;25.30;99.90;;;;;;4946812;28;20119;-88
2023/08/14 10:35:06;;;;;;;4.28;1.60;;;25.20;99.90;;;;;;4946586;28;20066;-88
2023/08/14 10:37:48;;;;;;;4.32;1.70;;;24.80;99.90;;;;;;4960068;28;20432;-87
2023/08/14 10:40:19;;;;;;;8.57;2.30;;;25.10;99.90;;;;;;4966135;28;20046;-87
2023/08/14 10:42:46;;;;;;;5.13;1.77;;;25.50;99.90;;;;;;4968886;28;20045;-87
2023/08/14 10:45:16;;;;;;;3.05;1.60;;;25.30;99.90;;;;;;4979541;28;20044;-88
2023/08/14 10:47:42;;;;;;;9.20;1.48;;;25.40;99.90;;;;;;4945252;28;20070;-88
2023/08/14 10:50:19;;;;;;;2.83;1.67;;;25.60;99.90;;;;;;4947749;28;20109;-88
2023/08/14 10:52:50;;;;;;;4.10;1.38;;;25.60;99.90;;;;;;4956830;28;20053;-87
2023/08/14 10:55:21;;;;;;;2.70;1.42;;;25.60;99.90;;;;;;4962515;28;20056;-87
2023/08/14 10:57:46;;;;;;;4.82;1.60;;;24.90;99.90;;;;;;4960595;28;20937;-88
2023/08/14 11:00:24;;;;;;;5.22;1.75;;;25.50;99.90;;;;;;4963883;28;20050;-86
2023/08/14 11:03:11;;;;;;;3.45;1.58;;;26.00;99.90;;;;;;4978022;28;20038;-87
2023/08/14 11:05:38;;;;;;;3.00;1.60;;;26.10;99.90;;;;;;4977638;28;20046;-88
2023/08/14 11:08:10;;;;;;;3.15;1.60;;;26.10;99.90;;;;;;4963191;28;20053;-87
2023/08/14 11:10:35;;;;;;;4.88;1.70;;;26.50;99.90;;;;;;4982387;28;20057;-89
2023/08/14 11:13:02;;;;;;;2.65;1.42;;;26.40;99.90;;;;;;4962538;28;20501;-88
2023/08/14 11:15:31;;;;;;;2.25;1.30;;;26.30;99.90;;;;;;4981826;28;20337;-86
2023/08/14 11:17:57;;;;;;;2.95;1.40;;;26.60;99.90;;;;;;4961202;28;20116;-87
2023/08/14 11:20:27;;;;;;;2.95;1.27;;;26.70;99.90;;;;;;4961858;28;20064;-88
2023/08/14 11:22:54;;;;;;;4.47;1.52;;;27.00;99.90;;;;;;4948103;28;20329;-88
2023/08/14 11:25:20;;;;;;;2.63;1.50;;;26.80;99.90;;;;;;4964705;28;20042;-86
2023/08/14 11:27:51;;;;;;;2.83;1.35;;;26.90;99.90;;;;;;4944315;28;20121;-87
2023/08/14 11:30:18;;;;;;;2.38;1.25;;;26.80;99.90;;;;;;4965125;28;20125;-87
2023/08/14 11:32:43;;;;;;;3.47;1.73;;;26.50;99.90;;;;;;4961542;28;20048;-87
2023/08/14 11:35:10;;;;;;;3.10;1.75;;;26.80;99.90;;;;;;4960319;28;20030;-87
2023/08/14 11:37:36;;;;;;;3.47;1.70;;;26.40;99.90;;;;;;4950908;28;20500;-88
2023/08/14 11:40:07;;;;;;;4.22;1.60;;;26.20;99.90;;;;;;4977970;28;20213;-88
2023/08/14 11:42:33;;;;;;;3.00;1.58;;;26.20;99.90;;;;;;4963143;28;20670;-87
2023/08/14 11:45:03;;;;;;;4.65;1.60;;;26.60;99.90;;;;;;4963718;28;20476;-88
2023/08/14 11:47:33;;;;;;;5.22;1.63;;;26.70;99.90;;;;;;4978626;28;20073;-85
2023/08/14 11:50:00;;;;;;;4.80;2.03;;;27.00;99.90;;;;;;4965345;28;20042;-88
2023/08/14 11:52:26;;;;;;;3.55;1.77;;;26.60;99.90;;;;;;4963306;28;20045;-87
2023/08/14 11:54:54;;;;;;;3.80;1.65;;;27.30;99.90;;;;;;4947075;28;20053;-87
2023/08/14 11:57:28;;;;;;;5.00;1.50;;;26.90;99.90;;;;;;4977828;28;20053;-88
2023/08/14 11:59:56;;;;;;;3.35;1.67;;;27.50;99.90;;;;;;4960618;28;20264;-88
2023/08/14 12:02:26;;;;;;;2.97;1.50;;;27.10;99.90;;;;;;4949286;28;20278;-88
2023/08/14 12:04:57;;;;;;;3.65;1.90;;;27.70;99.90;;;;;;4943161;28;20035;-87
2023/08/14 12:07:24;;;;;;;3.72;1.70;;;27.90;99.90;;;;;;4975336;28;20532;-87
2023/08/14 12:09:53;;;;;;;2.60;1.60;;;27.20;99.90;;;;;;4962025;28;20498;-87
2023/08/14 12:12:19;;;;;;;3.88;1.65;;;26.50;99.90;;;;;;4975022;28;20430;-89
2023/08/14 12:14:50;;;;;;;3.83;1.88;;;26.00;99.90;;;;;;4962153;28;20058;-88
2023/08/14 12:17:18;;;;;;;6.18;1.88;;;25.80;99.90;;;;;;4947156;28;20055;-89
2023/08/14 12:19:57;;;;;;;3.90;1.63;;;25.70;99.90;;;;;;4957766;28;20066;-86
2023/08/14 12:22:24;;;;;;;5.03;1.45;;;25.90;99.90;;;;;;4961068;28;20526;-87
2023/08/14 12:24:51;;;;;;;4.95;1.70;;;25.90;99.90;;;;;;4965274;28;20042;-87
2023/08/14 12:27:22;;;;;;;3.50;1.58;;;26.30;99.90;;;;;;4962056;28;20119;-88
2023/08/14 12:29:48;;;;;;;3.17;1.42;;;26.90;99.90;;;;;;4961267;28;20039;-87
2023/08/14 12:32:15;;;;;;;3.30;1.70;;;26.90;99.90;;;;;;4938560;28;20082;-87
2023/08/14 12:34:41;;;;;;;2.65;1.48;;;27.20;99.90;;;;;;4940977;28;20546;-88
2023/08/14 12:37:10;;;;;;;3.75;1.50;;;26.50;99.90;;;;;;4942584;28;20117;-88
2023/08/14 12:39:36;;;;;;;3.90;1.60;;;26.70;99.90;;;;;;4957940;28;20050;-88
2023/08/14 12:42:02;;;;;;;4.35;1.50;;;26.30;99.90;;;;;;4957591;28;20035;-87
2023/08/14 12:44:29;;;;;;;3.72;1.50;;;27.50;99.90;;;;;;4956892;28;20031;-88